createdAt,value
2019-01-06T00:01:32.577Z,4.43
2019-01-06T00:04:05.321Z,4.47
2019-01-06T00:06:53.381Z,7.83
2019-01-06T00:09:26.294Z,7.87
2019-01-06T00:12:08.358Z,5.20
2019-01-06T00:14:38.406Z,5.50
2019-01-06T00:17:24.885Z,4.00
2019-01-06T00:20:03.942Z,3.60
2019-01-06T00:22:37.190Z,3.50
2019-01-06T00:25:13.044Z,3.70
2019-01-06T00:27:54.750Z,3.23
2019-01-06T00:30:33.701Z,3.00
2019-01-06T00:33:19.125Z,3.90
2019-01-06T00:36:04.458Z,3.47
2019-01-06T00:38:40.318Z,2.93
2019-01-06T00:41:10.361Z,2.67
2019-01-06T00:43:49.374Z,3.17
2019-01-06T00:46:22.380Z,2.37
2019-01-06T00:49:01.345Z,3.07
2019-01-06T00:51:47.382Z,2.43
2019-01-06T00:54:17.430Z,2.53
2019-01-06T00:57:03.829Z,2.90
2019-01-06T00:59:50.042Z,2.40
2019-01-06T01:02:20.082Z,4.13
2019-01-06T01:04:50.173Z,2.60
2019-01-06T01:07:22.647Z,2.47
2019-01-06T01:10:09.171Z,3.20
2019-01-06T01:12:55.998Z,3.20
2019-01-06T01:15:41.374Z,3.10
2019-01-06T01:18:11.408Z,2.97
2019-01-06T01:20:47.671Z,2.70
2019-01-06T01:23:20.413Z,2.90
2019-01-06T01:25:56.385Z,2.57
2019-01-06T01:28:42.973Z,2.90
2019-01-06T01:31:28.385Z,2.60
2019-01-06T01:34:10.463Z,3.00
2019-01-06T01:36:56.529Z,3.00
2019-01-06T01:39:35.242Z,3.50
2019-01-06T01:42:14.298Z,3.13
2019-01-06T01:44:53.169Z,2.93
2019-01-06T01:47:23.282Z,3.27
2019-01-06T01:49:56.538Z,2.83
2019-01-06T01:52:26.579Z,3.30
2019-01-06T01:54:56.630Z,2.83
2019-01-06T01:57:26.670Z,2.73
2019-01-06T02:00:02.456Z,2.80
2019-01-06T02:02:41.423Z,2.77
2019-01-06T02:05:11.469Z,2.60
2019-01-06T02:07:44.217Z,2.70
2019-01-06T02:10:17.294Z,2.60
2019-01-06T02:12:47.334Z,2.50
2019-01-06T02:15:29.586Z,2.90
2019-01-06T02:18:08.548Z,2.60
2019-01-06T02:20:47.192Z,2.40
2019-01-06T02:23:20.089Z,2.90
2019-01-06T02:26:06.889Z,2.90
2019-01-06T02:28:55.291Z,2.80
2019-01-06T02:31:43.234Z,2.60
2019-01-06T02:34:29.460Z,2.90
2019-01-06T02:37:15.957Z,2.80
2019-01-06T02:40:02.489Z,2.90
2019-01-06T02:42:38.497Z,2.73
2019-01-06T02:45:08.682Z,2.87
2019-01-06T02:47:41.422Z,3.00
2019-01-06T02:50:27.826Z,3.10
2019-01-06T02:53:14.441Z,3.03
2019-01-06T02:55:54.022Z,2.80
2019-01-06T02:58:29.918Z,2.80
2019-01-06T03:01:15.176Z,2.73
2019-01-06T03:03:45.218Z,2.90
2019-01-06T03:06:18.236Z,2.87
2019-01-06T03:09:04.661Z,3.10
2019-01-06T03:11:34.698Z,3.10
2019-01-06T03:14:04.745Z,2.80
2019-01-06T03:16:46.886Z,3.40
2019-01-06T03:19:16.948Z,3.23
2019-01-06T03:21:59.295Z,3.70
2019-01-06T03:24:47.716Z,4.97
2019-01-06T03:27:20.961Z,5.60
2019-01-06T03:30:07.110Z,5.33
2019-01-06T03:32:55.167Z,11.73
2019-01-06T03:35:30.948Z,5.10
2019-01-06T03:38:12.792Z,5.40
2019-01-06T03:40:48.326Z,4.97
2019-01-06T03:43:24.362Z,3.70
2019-01-06T03:46:10.687Z,3.33
2019-01-06T03:48:49.776Z,3.00
2019-01-06T03:51:28.603Z,2.93
2019-01-06T03:54:15.185Z,3.00
2019-01-06T03:57:03.646Z,2.50
2019-01-06T03:59:50.257Z,2.63
2019-01-06T04:02:20.395Z,2.60
2019-01-06T04:05:07.217Z,2.90
2019-01-06T04:07:53.986Z,2.60
2019-01-06T04:10:40.079Z,3.37
2019-01-06T04:13:28.274Z,2.93
2019-01-06T04:15:58.362Z,3.17
2019-01-06T04:18:31.019Z,2.70
2019-01-06T04:21:07.039Z,2.63
2019-01-06T04:23:39.801Z,2.80
2019-01-06T04:26:26.115Z,2.83
2019-01-06T04:29:12.515Z,3.10
2019-01-06T04:31:57.833Z,3.43
2019-01-06T04:34:27.878Z,3.37
2019-01-06T04:37:03.861Z,3.10
2019-01-06T04:39:50.536Z,3.60
2019-01-06T04:42:32.735Z,3.57
2019-01-06T04:45:20.961Z,3.77
2019-01-06T04:48:07.130Z,3.73
2019-01-06T04:50:52.188Z,3.57
2019-01-06T04:53:22.288Z,3.70
2019-01-06T04:55:55.422Z,3.60
2019-01-06T04:58:37.255Z,3.67
2019-01-06T05:01:12.903Z,3.47
2019-01-06T05:03:59.303Z,4.33
2019-01-06T05:06:45.832Z,4.10
2019-01-06T05:09:33.989Z,4.50
2019-01-06T05:12:16.000Z,4.10
2019-01-06T05:14:52.595Z,4.10
2019-01-06T05:17:31.980Z,4.50
2019-01-06T05:20:14.129Z,4.70
2019-01-06T05:22:53.260Z,6.40
2019-01-06T05:25:32.502Z,4.77
2019-01-06T05:28:11.943Z,5.53
2019-01-06T05:30:42.119Z,5.00
2019-01-06T05:33:12.219Z,6.03
2019-01-06T05:35:58.383Z,5.10
2019-01-06T05:38:43.449Z,5.83
2019-01-06T05:41:25.202Z,5.60
2019-01-06T05:44:11.214Z,5.37
2019-01-06T05:46:47.337Z,5.97
2019-01-06T05:49:23.443Z,5.37
2019-01-06T05:51:59.307Z,6.00
2019-01-06T05:54:38.253Z,6.50
2019-01-06T05:57:24.564Z,6.07
2019-01-06T05:59:54.720Z,5.40
2019-01-06T06:02:28.134Z,5.53
2019-01-06T06:05:16.362Z,6.40
2019-01-06T06:08:01.478Z,6.47
2019-01-06T06:10:34.943Z,6.50
2019-01-06T06:13:11.197Z,6.53
2019-01-06T06:15:50.298Z,4.63
2019-01-06T06:18:23.260Z,5.57
2019-01-06T06:20:53.446Z,5.30
2019-01-06T06:23:26.280Z,5.37
2019-01-06T06:26:05.317Z,4.43
2019-01-06T06:28:38.147Z,5.03
2019-01-06T06:31:24.636Z,4.67
2019-01-06T06:34:10.857Z,5.60
2019-01-06T06:36:40.928Z,5.50
2019-01-06T06:39:23.112Z,4.30
2019-01-06T06:41:53.179Z,4.60
2019-01-06T06:44:35.564Z,4.07
2019-01-06T06:47:17.889Z,3.73
2019-01-06T06:50:04.248Z,4.50
2019-01-06T06:52:40.398Z,6.67
2019-01-06T06:55:10.507Z,4.67
2019-01-06T06:58:15.516Z,4.30
2019-01-06T07:00:57.762Z,4.17
2019-01-06T07:03:36.804Z,3.83
2019-01-06T07:06:26.409Z,3.80
2019-01-06T07:08:56.512Z,5.00
2019-01-06T07:11:38.516Z,3.73
2019-01-06T07:14:14.719Z,3.33
2019-01-06T07:17:37.687Z,3.23
2019-01-06T07:20:26.445Z,3.67
2019-01-06T07:22:56.554Z,3.10
2019-01-06T07:25:26.713Z,3.43
2019-01-06T07:28:04.632Z,4.00
2019-01-06T07:30:50.025Z,3.63
2019-01-06T07:33:36.782Z,3.33
2019-01-06T07:36:23.659Z,3.67
2019-01-06T07:38:53.797Z,3.53
2019-01-06T07:41:23.871Z,3.70
2019-01-06T07:44:10.474Z,4.08
2019-01-06T07:46:46.637Z,3.60
2019-01-06T07:49:16.757Z,4.20
2019-01-06T07:51:46.867Z,4.10
2019-01-06T07:54:39.702Z,4.17
2019-01-06T07:57:16.309Z,4.80
2019-01-06T08:00:16.113Z,4.63
2019-01-06T08:03:06.506Z,6.97
2019-01-06T08:05:58.502Z,7.47
2019-01-06T08:08:40.713Z,6.47
2019-01-06T08:11:31.929Z,5.93
2019-01-06T08:14:23.356Z,5.27
2019-01-06T08:17:14.188Z,4.90
2019-01-06T08:20:02.484Z,5.37
2019-01-06T08:22:53.215Z,5.50
2019-01-06T08:25:39.092Z,4.90
2019-01-06T08:28:31.574Z,6.83
2019-01-06T08:31:13.543Z,7.93
2019-01-06T08:34:06.128Z,3.60
2019-01-06T08:36:46.673Z,4.10
2019-01-06T08:39:36.899Z,3.50
2019-01-06T08:42:16.384Z,3.70
2019-01-06T08:45:08.722Z,15.43
2019-01-06T08:47:43.760Z,3.10
2019-01-06T08:50:38.696Z,2.83
2019-01-06T08:53:19.975Z,3.47
2019-01-06T08:55:50.981Z,2.50
2019-01-06T08:58:48.786Z,2.83
2019-01-06T09:01:28.394Z,2.47
2019-01-06T09:07:25.235Z,2.57
2019-01-06T09:09:58.168Z,2.50
2019-01-06T09:12:42.926Z,4.13
2019-01-06T09:15:17.957Z,3.60
2019-01-06T09:17:57.258Z,2.10
2019-01-06T09:20:33.108Z,2.20
2019-01-06T09:23:06.377Z,2.47
2019-01-06T09:25:40.867Z,2.47
2019-01-06T09:28:11.254Z,2.43
2019-01-06T09:30:43.808Z,2.33
2019-01-06T09:33:30.242Z,2.43
2019-01-06T09:36:15.704Z,2.63
2019-01-06T09:39:03.970Z,1.87
2019-01-06T09:41:39.895Z,2.03
2019-01-06T09:44:26.303Z,2.53
2019-01-06T09:47:12.833Z,2.73
2019-01-06T09:49:58.040Z,2.03
2019-01-06T09:52:28.220Z,1.70
2019-01-06T09:55:13.318Z,1.70
2019-01-06T09:57:43.412Z,1.83
2019-01-06T10:00:19.268Z,2.13
2019-01-06T10:02:49.375Z,3.23
2019-01-06T10:05:31.837Z,2.67
2019-01-06T10:08:16.701Z,2.50
2019-01-06T10:10:49.175Z,2.17
2019-01-06T10:13:21.982Z,1.60
2019-01-06T10:16:08.373Z,2.07
2019-01-06T10:18:38.484Z,3.00
2019-01-06T10:21:15.993Z,2.33
2019-01-06T10:23:57.965Z,2.07
2019-01-06T10:26:43.231Z,1.60
2019-01-06T10:29:13.335Z,1.70
2019-01-06T10:31:43.521Z,1.77
2019-01-06T10:34:13.646Z,1.80
2019-01-06T10:37:00.211Z,3.07
2019-01-06T10:39:36.559Z,2.33
2019-01-06T10:42:09.786Z,2.33
2019-01-06T10:44:39.884Z,3.00
2019-01-06T10:47:18.853Z,3.00
2019-01-06T10:50:05.303Z,2.00
2019-01-06T10:52:51.988Z,2.63
2019-01-06T10:55:27.837Z,1.50
2019-01-06T10:58:13.303Z,1.60
2019-01-06T11:01:01.664Z,2.27
2019-01-06T11:03:49.773Z,2.13
2019-01-06T11:06:20.148Z,2.17
2019-01-06T11:08:50.416Z,2.20
2019-01-06T11:11:29.479Z,2.57
2019-01-06T11:14:02.325Z,2.73
2019-01-06T11:16:32.438Z,2.07
2019-01-06T11:19:05.581Z,2.33
2019-01-06T11:21:44.546Z,5.40
2019-01-06T11:24:17.352Z,2.90
2019-01-06T11:26:50.464Z,2.93
2019-01-06T11:29:20.567Z,3.10
2019-01-06T11:31:56.682Z,2.30
2019-01-06T11:34:32.553Z,2.30
2019-01-06T11:37:08.833Z,2.67
2019-01-06T11:39:50.917Z,2.10
2019-01-06T11:42:21.025Z,2.40
2019-01-06T11:45:00.182Z,2.03
2019-01-06T11:47:45.786Z,1.40
2019-01-06T11:50:28.354Z,1.37
2019-01-06T11:52:58.497Z,1.43
2019-01-06T11:55:45.210Z,1.80
2019-01-06T11:58:31.637Z,1.50
2019-01-06T12:01:10.868Z,1.90
2019-01-06T12:03:41.054Z,2.87
2019-01-06T12:06:23.300Z,3.60
2019-01-06T12:08:56.064Z,5.37
2019-01-06T12:11:42.666Z,4.57
2019-01-06T12:14:29.422Z,5.10
2019-01-06T12:17:18.848Z,3.57
2019-01-06T12:20:05.639Z,3.43
2019-01-06T12:22:51.043Z,4.93
2019-01-06T12:25:26.925Z,4.00
2019-01-06T12:28:02.536Z,2.40
2019-01-06T12:30:32.636Z,1.80
2019-01-06T12:33:19.997Z,1.83
2019-01-06T12:35:50.074Z,2.33
2019-01-06T12:38:36.559Z,1.93
2019-01-06T12:41:09.197Z,2.33
2019-01-06T12:43:41.862Z,2.57
2019-01-06T12:46:20.758Z,2.20
2019-01-06T12:48:59.785Z,2.97
2019-01-06T12:51:29.875Z,2.10
2019-01-06T12:54:00.053Z,2.20
2019-01-06T12:56:32.870Z,9.93
2019-01-06T12:59:19.276Z,4.93
2019-01-06T13:02:07.513Z,4.33
2019-01-06T13:04:37.610Z,3.20
2019-01-06T13:07:24.133Z,2.60
2019-01-06T13:10:10.465Z,1.70
2019-01-06T13:12:55.611Z,2.40
2019-01-06T13:15:40.741Z,2.50
2019-01-06T13:18:19.503Z,2.10
2019-01-06T13:20:49.603Z,3.10
2019-01-06T13:23:22.757Z,3.20
2019-01-06T13:25:52.864Z,2.20
2019-01-06T13:28:38.337Z,2.20
2019-01-06T13:31:26.624Z,1.70
2019-01-06T13:34:05.978Z,1.70
2019-01-06T13:36:52.927Z,1.83
2019-01-06T13:39:39.305Z,1.90
2019-01-06T13:42:09.800Z,2.03
2019-01-06T13:44:40.371Z,2.43
2019-01-06T13:47:10.489Z,1.93
2019-01-06T13:49:57.140Z,1.50
2019-01-06T13:52:39.416Z,1.80
2019-01-06T13:55:12.589Z,2.70
2019-01-06T13:57:59.160Z,2.00
2019-01-06T14:00:46.287Z,1.93
2019-01-06T14:03:16.446Z,3.00
2019-01-06T14:05:50.622Z,3.10
2019-01-06T14:08:41.234Z,2.60
2019-01-06T14:11:19.242Z,2.60
2019-01-06T14:13:53.001Z,2.23
2019-01-06T14:16:32.581Z,3.57
2019-01-06T14:19:05.723Z,3.37
2019-01-06T14:21:54.871Z,2.90
2019-01-06T14:24:28.193Z,2.83
2019-01-06T14:27:10.787Z,2.90
2019-01-06T14:29:40.957Z,3.13
2019-01-06T14:32:27.610Z,2.83
2019-01-06T14:35:14.853Z,3.00
2019-01-06T14:38:01.282Z,3.10
2019-01-06T14:40:37.107Z,3.20
2019-01-06T14:43:10.092Z,2.90
2019-01-06T14:45:42.816Z,3.10
2019-01-06T14:48:15.873Z,2.83
2019-01-06T14:51:02.146Z,5.97
2019-01-06T14:53:44.528Z,5.53
2019-01-06T14:56:27.195Z,5.90
2019-01-06T14:59:12.485Z,5.80
2019-01-06T15:01:42.629Z,6.67
2019-01-06T15:04:15.821Z,5.50
2019-01-06T15:06:46.011Z,5.00
2019-01-06T15:09:25.479Z,3.37
2019-01-06T15:12:12.047Z,3.20
2019-01-06T15:14:58.456Z,3.43
2019-01-06T15:17:37.701Z,3.00
2019-01-06T15:20:23.604Z,3.30
2019-01-06T15:23:02.687Z,5.57
2019-01-06T15:25:32.852Z,5.60
2019-01-06T15:28:09.149Z,5.67
2019-01-06T15:30:42.029Z,5.03
2019-01-06T15:33:18.039Z,4.23
2019-01-06T15:35:56.981Z,6.67
2019-01-06T15:38:45.078Z,5.97
2019-01-06T15:41:31.672Z,8.43
2019-01-06T15:44:01.769Z,8.33
2019-01-06T15:46:48.526Z,13.10
2019-01-06T15:49:19.134Z,11.17
2019-01-06T15:51:52.771Z,11.93
2019-01-06T15:54:39.187Z,13.33
2019-01-06T15:57:09.362Z,8.83
2019-01-06T15:59:39.479Z,8.00
2019-01-06T16:02:25.056Z,6.70
2019-01-06T16:05:14.969Z,5.30
2019-01-06T16:07:45.204Z,5.60
2019-01-06T16:10:15.318Z,4.90
2019-01-06T16:12:54.941Z,4.60
2019-01-06T16:15:32.322Z,3.97
2019-01-06T16:18:02.890Z,3.97
2019-01-06T16:20:49.649Z,4.77
2019-01-06T16:23:19.926Z,4.60
2019-01-06T16:26:02.309Z,4.80
2019-01-06T16:28:32.500Z,5.63
2019-01-06T16:31:19.199Z,5.80
2019-01-06T16:34:05.553Z,6.23
2019-01-06T16:36:35.653Z,6.53
2019-01-06T16:39:19.438Z,6.10
2019-01-06T16:41:49.560Z,6.90
2019-01-06T16:44:22.511Z,7.37
2019-01-06T16:47:01.683Z,7.17
2019-01-06T16:49:47.788Z,5.90
2019-01-06T16:52:30.244Z,7.30
2019-01-06T16:55:03.525Z,7.00
2019-01-06T16:57:34.963Z,5.90
2019-01-06T17:00:22.431Z,7.37
2019-01-06T17:02:58.575Z,6.97
2019-01-06T17:05:31.462Z,6.80
2019-01-06T17:08:17.969Z,6.90
2019-01-06T17:11:06.302Z,6.70
2019-01-06T17:13:52.684Z,7.33
2019-01-06T17:16:39.233Z,7.50
2019-01-06T17:19:09.450Z,9.03
2019-01-06T17:21:55.690Z,10.13
2019-01-06T17:24:32.053Z,11.03
2019-01-06T17:27:05.383Z,10.03
2019-01-06T17:29:51.987Z,10.57
2019-01-06T17:32:38.415Z,12.80
2019-01-06T17:35:14.923Z,16.87
2019-01-06T17:37:54.163Z,18.70
2019-01-06T17:40:27.255Z,20.90
2019-01-06T17:42:57.402Z,22.43
2019-01-06T17:45:33.557Z,21.00
2019-01-06T17:48:06.407Z,23.13
2019-01-06T17:50:36.521Z,18.57
2019-01-06T17:53:06.689Z,12.57
2019-01-06T17:55:42.623Z,18.67
2019-01-06T17:58:18.816Z,6.80
2019-01-06T18:00:51.570Z,5.27
2019-01-06T18:03:27.533Z,4.40
2019-01-06T18:05:57.627Z,4.60
2019-01-06T18:08:40.148Z,4.53
2019-01-06T18:11:26.634Z,4.00
2019-01-06T18:14:02.371Z,3.30
2019-01-06T18:16:45.905Z,2.63
2019-01-06T18:19:32.130Z,3.10
2019-01-06T18:22:20.586Z,2.83
2019-01-06T18:24:56.765Z,2.63
2019-01-06T18:27:44.048Z,2.70
2019-01-06T18:30:29.695Z,5.30
2019-01-06T18:32:59.810Z,3.60
2019-01-06T18:35:35.667Z,3.23
2019-01-06T18:38:12.095Z,5.47
2019-01-06T18:40:51.239Z,7.97
2019-01-06T18:43:24.586Z,9.10
2019-01-06T18:45:57.710Z,13.68
2019-01-06T18:48:33.583Z,9.57
2019-01-06T18:51:06.448Z,6.43
2019-01-06T18:53:36.575Z,4.47
2019-01-06T18:56:09.972Z,4.20
2019-01-06T18:58:46.098Z,4.80
2019-01-06T19:01:34.344Z,4.47
2019-01-06T19:04:13.332Z,4.60
2019-01-06T19:06:55.462Z,5.13
2019-01-06T19:09:43.831Z,4.47
2019-01-06T19:12:17.086Z,4.30
2019-01-06T19:14:52.880Z,4.43
2019-01-06T19:17:40.524Z,4.20
2019-01-06T19:20:20.878Z,4.50
2019-01-06T19:23:03.416Z,4.90
2019-01-06T19:25:36.379Z,4.77
2019-01-06T19:28:06.559Z,4.70
2019-01-06T19:30:36.866Z,4.50
2019-01-06T19:33:12.957Z,4.20
2019-01-06T19:35:52.359Z,4.33
2019-01-06T19:38:22.449Z,3.80
2019-01-06T19:41:09.007Z,3.40
2019-01-06T19:43:47.913Z,3.70
2019-01-06T19:46:27.350Z,4.30
2019-01-06T19:48:57.455Z,5.10
2019-01-06T19:51:27.549Z,5.57
2019-01-06T19:54:12.955Z,6.30
2019-01-06T19:56:49.049Z,5.60
2019-01-06T19:59:25.122Z,5.67
2019-01-06T20:02:01.232Z,4.80
2019-01-06T20:04:31.916Z,4.90
2019-01-06T20:07:18.724Z,4.57
2019-01-06T20:09:54.867Z,5.00
2019-01-06T20:12:27.823Z,4.40
2019-01-06T20:15:00.663Z,4.93
2019-01-06T20:17:33.576Z,4.70
2019-01-06T20:20:03.657Z,3.90
2019-01-06T20:22:50.513Z,4.50
2019-01-06T20:25:23.617Z,5.13
2019-01-06T20:27:59.267Z,4.60
2019-01-06T20:30:32.408Z,4.60
2019-01-06T20:33:18.751Z,4.20
2019-01-06T20:36:07.484Z,4.30
2019-01-06T20:38:49.637Z,10.23
2019-01-06T20:41:36.387Z,4.67
2019-01-06T20:44:06.492Z,4.63
2019-01-06T20:46:36.590Z,5.33
2019-01-06T20:49:09.615Z,5.53
2019-01-06T20:51:54.833Z,5.13
2019-01-06T20:54:33.778Z,5.83
2019-01-06T20:57:03.935Z,8.23
2019-01-06T20:59:50.419Z,8.67
2019-01-06T21:02:36.714Z,11.73
2019-01-06T21:05:23.464Z,8.10
2019-01-06T21:07:59.439Z,7.93
2019-01-06T21:10:35.394Z,7.57
2019-01-06T21:13:05.502Z,8.07
2019-01-06T21:15:41.123Z,7.33
2019-01-06T21:18:26.549Z,7.23
2019-01-06T21:21:13.181Z,7.53
2019-01-06T21:23:52.485Z,7.30
2019-01-06T21:26:28.566Z,7.00
2019-01-06T21:29:15.075Z,6.80
2019-01-06T21:31:45.193Z,6.17
2019-01-06T21:34:27.310Z,6.20
2019-01-06T21:37:09.572Z,6.13
2019-01-06T21:39:45.834Z,5.00
2019-01-06T21:42:30.748Z,4.77
2019-01-06T21:45:17.332Z,4.33
2019-01-06T21:47:52.952Z,4.50
2019-01-06T21:50:23.067Z,4.50
2019-01-06T21:52:53.165Z,4.83
2019-01-06T21:55:23.398Z,4.53
2019-01-06T21:57:59.112Z,4.53
2019-01-06T22:00:45.690Z,5.30
2019-01-06T22:03:25.025Z,5.30
2019-01-06T22:06:07.198Z,5.40
2019-01-06T22:08:53.787Z,5.23
2019-01-06T22:11:23.937Z,5.80
2019-01-06T22:14:00.689Z,5.60
2019-01-06T22:16:37.820Z,5.30
2019-01-06T22:19:10.817Z,5.53
2019-01-06T22:21:44.176Z,5.73
2019-01-06T22:24:30.559Z,5.73
2019-01-06T22:27:13.080Z,5.40
2019-01-06T22:29:55.235Z,5.70
2019-01-06T22:32:25.460Z,5.37
2019-01-06T22:34:58.601Z,5.93
2019-01-06T22:37:28.680Z,5.40
2019-01-06T22:40:01.744Z,5.47
2019-01-06T22:42:34.840Z,5.60
2019-01-06T22:45:05.590Z,5.03
2019-01-06T22:47:44.747Z,5.27
2019-01-06T22:50:18.462Z,5.10
2019-01-06T22:52:54.942Z,4.43
2019-01-06T22:55:27.819Z,5.23
2019-01-06T22:58:10.029Z,5.27
2019-01-06T23:00:52.268Z,5.10
2019-01-06T23:03:38.600Z,5.00
2019-01-06T23:06:11.469Z,4.87
2019-01-06T23:08:41.576Z,4.53
2019-01-06T23:11:27.681Z,5.17
2019-01-06T23:14:03.618Z,5.37
2019-01-06T23:16:33.748Z,4.97
2019-01-06T23:19:10.062Z,4.80
2019-01-06T23:21:42.616Z,4.47
2019-01-06T23:24:27.913Z,4.67
2019-01-06T23:27:14.568Z,4.80
2019-01-06T23:30:00.984Z,4.70
2019-01-06T23:32:47.308Z,4.97
2019-01-06T23:35:32.446Z,4.10
2019-01-06T23:38:02.554Z,4.53
2019-01-06T23:40:48.954Z,4.90
2019-01-06T23:43:37.113Z,4.00
2019-01-06T23:46:13.374Z,4.53
2019-01-06T23:48:43.476Z,4.00
2019-01-06T23:51:16.299Z,4.60
2019-01-06T23:53:46.411Z,4.10
2019-01-06T23:56:25.479Z,4.50
2019-01-06T23:59:10.616Z,4.07
